North Hayden, Indiana
Current Conditions -  °F | °C
As of 7:55 PM on Saturday 20 Dec 2014 (Local Time) from KIGQ Reporting Station
Overcast Overcast  
Wind Chill: 31°   Ceiling: 6000
Heat Index: 31°   Visibility: 10mi
Dew Point: 27°   Wind: 3mph
Humidity: 84%   Direction: 200°SSW
Pressure: 30.28"   Gusts: NA
Location:  41.2585°N, 87.4193°W
Report Text: KIGQ 210155Z AUTO 20003KT 10SM OVC060 00/M03 A3028 RMK AO2 T10031027
Loading
Personal Weather Stations






























Interactive Weather Map New forecast layout! Learn more

10-Day Weather Forecast

Advertisements
Track Severe Weather on mobile